createdAt,value
2019-04-27T00:01:55.028Z,18.66
2019-04-27T00:04:25.452Z,18.69
2019-04-27T00:06:55.772Z,18.58
2019-04-27T00:09:33.972Z,18.56
2019-04-27T00:12:16.529Z,18.57
2019-04-27T00:14:43.983Z,18.58
2019-04-27T00:17:21.020Z,18.49
2019-04-27T00:19:49.078Z,18.46
2019-04-27T00:22:19.341Z,18.46
2019-04-27T00:24:48.047Z,18.48
2019-04-27T00:27:16.795Z,18.37
2019-04-27T00:29:45.492Z,18.37
2019-04-27T00:32:14.288Z,18.39
2019-04-27T00:34:43.871Z,18.38
2019-04-27T00:37:19.976Z,18.40
2019-04-27T00:39:50.288Z,18.27
2019-04-27T00:42:18.984Z,18.04
2019-04-27T00:44:47.691Z,18.07
2019-04-27T00:47:16.421Z,18.10
2019-04-27T00:49:45.123Z,18.22
2019-04-27T00:52:14.022Z,18.11
2019-04-27T00:54:44.142Z,18.13
2019-04-27T00:57:20.454Z,18.05
2019-04-27T00:59:59.551Z,18.05
2019-04-27T01:02:29.810Z,18.01
2019-04-27T01:04:58.502Z,18.07
2019-04-27T01:07:27.259Z,18.15
2019-04-27T01:09:55.889Z,18.10
2019-04-27T01:12:24.579Z,18.10
2019-04-27T01:14:53.597Z,17.98
2019-04-27T01:17:22.287Z,18.03
2019-04-27T01:19:50.993Z,18.05
2019-04-27T01:22:19.720Z,18.00
2019-04-27T01:24:49.217Z,18.06
2019-04-27T01:27:19.574Z,18.03
2019-04-27T01:29:49.995Z,17.99
2019-04-27T01:32:20.772Z,17.98
2019-04-27T01:34:49.458Z,17.85
2019-04-27T01:37:19.529Z,17.88
2019-04-27T01:39:50.346Z,17.26
2019-04-27T01:42:19.455Z,17.47
2019-04-27T01:44:49.594Z,17.64
2019-04-27T01:47:18.772Z,17.73
2019-04-27T01:49:49.390Z,17.74
2019-04-27T01:52:19.437Z,17.55
2019-04-27T01:54:49.515Z,17.43
2019-04-27T01:57:19.433Z,17.61
2019-04-27T01:59:48.939Z,17.65
2019-04-27T02:02:26.103Z,17.38
2019-04-27T02:04:59.383Z,17.05
2019-04-27T02:07:30.132Z,16.95
2019-04-27T02:09:58.932Z,17.26
2019-04-27T02:12:29.123Z,16.96
2019-04-27T02:14:58.851Z,17.02
2019-04-27T02:17:28.831Z,17.31
2019-04-27T02:19:59.420Z,17.33
2019-04-27T02:22:29.733Z,17.36
2019-04-27T02:24:59.114Z,17.28
2019-04-27T02:27:29.338Z,17.27
2019-04-27T02:30:05.724Z,17.38
2019-04-27T02:32:36.037Z,17.54
2019-04-27T02:35:06.502Z,17.59
2019-04-27T02:37:35.201Z,17.48
2019-04-27T02:40:05.395Z,17.62
2019-04-27T02:42:35.652Z,17.66
2019-04-27T02:45:05.055Z,17.65
2019-04-27T02:47:33.789Z,17.63
2019-04-27T02:50:02.412Z,17.57
2019-04-27T02:52:35.396Z,17.50
2019-04-27T02:55:05.018Z,17.52
2019-04-27T02:57:33.716Z,17.56
2019-04-27T03:00:02.411Z,17.56
2019-04-27T03:02:35.645Z,17.48
2019-04-27T03:05:04.946Z,17.32
2019-04-27T03:07:33.646Z,17.39
2019-04-27T03:10:02.887Z,17.32
2019-04-27T03:12:33.217Z,17.40
2019-04-27T03:15:06.209Z,17.40
2019-04-27T03:17:36.534Z,17.34
2019-04-27T03:20:14.842Z,17.21
2019-04-27T03:22:45.139Z,17.04
2019-04-27T03:25:15.928Z,16.92
2019-04-27T03:27:46.196Z,17.05
2019-04-27T03:30:16.041Z,17.06
2019-04-27T03:32:44.736Z,17.12
2019-04-27T03:35:14.148Z,17.11
2019-04-27T03:37:44.511Z,17.00
2019-04-27T03:40:13.419Z,17.19
2019-04-27T03:42:43.687Z,17.27
2019-04-27T03:45:12.547Z,17.28
2019-04-27T03:47:41.202Z,17.03
2019-04-27T03:50:12.076Z,17.04
2019-04-27T03:52:59.881Z,17.07
2019-04-27T03:55:30.658Z,16.45
2019-04-27T03:58:21.731Z,16.85
2019-04-27T04:00:52.136Z,16.91
2019-04-27T04:03:21.029Z,17.08
2019-04-27T04:05:52.050Z,17.22
2019-04-27T04:08:20.264Z,17.07
2019-04-27T04:10:50.529Z,16.43
2019-04-27T04:13:22.709Z,16.81
2019-04-27T04:15:52.822Z,17.12
2019-04-27T04:18:21.722Z,17.25
2019-04-27T04:20:50.681Z,17.22
2019-04-27T04:23:20.353Z,17.16
2019-04-27T04:25:50.034Z,17.12
2019-04-27T04:28:19.886Z,17.31
2019-04-27T04:30:50.183Z,17.50
2019-04-27T04:33:20.551Z,17.62
2019-04-27T04:35:49.982Z,17.77
2019-04-27T04:38:21.025Z,17.80
2019-04-27T04:40:51.290Z,17.93
2019-04-27T04:43:36.475Z,17.66
2019-04-27T04:46:23.259Z,17.62
2019-04-27T04:48:53.020Z,17.71
2019-04-27T04:51:21.722Z,17.65
2019-04-27T04:53:51.787Z,17.39
2019-04-27T04:56:20.682Z,17.68
2019-04-27T04:58:49.785Z,17.72
2019-04-27T05:01:19.667Z,17.88
2019-04-27T05:03:48.920Z,18.00
2019-04-27T05:06:18.991Z,18.08
2019-04-27T05:08:49.384Z,18.08
2019-04-27T05:11:19.598Z,18.12
2019-04-27T05:13:49.407Z,18.20
2019-04-27T05:16:18.881Z,18.24
2019-04-27T05:18:49.418Z,18.20
2019-04-27T05:21:32.016Z,17.86
2019-04-27T05:24:00.901Z,18.01
2019-04-27T05:45:03.874Z,18.67
2019-04-27T05:47:51.838Z,18.21
2019-04-27T05:50:21.997Z,18.15
2019-04-27T05:52:49.835Z,18.24
2019-04-27T05:55:19.187Z,17.90
2019-04-27T05:57:49.032Z,17.28
2019-04-27T06:00:19.450Z,17.38
2019-04-27T06:02:48.758Z,17.54
2019-04-27T06:05:19.003Z,17.61
2019-04-27T06:07:48.799Z,17.73
2019-04-27T06:10:19.666Z,18.09
2019-04-27T06:12:48.659Z,18.33
2019-04-27T06:15:17.358Z,18.15
2019-04-27T06:17:46.080Z,18.17
2019-04-27T06:20:14.813Z,18.20
2019-04-27T06:22:43.444Z,17.82
2019-04-27T06:25:12.188Z,18.26
2019-04-27T06:27:40.872Z,19.03
2019-04-27T06:30:09.779Z,19.55
2019-04-27T06:32:39.556Z,19.24
2019-04-27T06:35:09.152Z,18.68
2019-04-27T06:37:39.010Z,19.20
2019-04-27T06:40:09.648Z,18.80
2019-04-27T07:01:53.838Z,20.32
2019-04-27T07:04:22.532Z,19.58
2019-04-27T07:06:55.845Z,19.43
2019-04-27T07:09:21.616Z,19.72
2019-04-27T07:11:50.310Z,20.30
2019-04-27T07:14:19.682Z,20.29
2019-04-27T07:16:48.820Z,20.21
2019-04-27T07:19:19.152Z,19.92
2019-04-27T07:21:49.652Z,20.53
2019-04-27T07:24:19.663Z,20.31
2019-04-27T07:26:48.920Z,20.03
2019-04-27T07:29:19.460Z,20.34
2019-04-27T07:31:49.583Z,20.51
2019-04-27T07:34:18.998Z,20.35
2019-04-27T07:36:49.133Z,19.96
2019-04-27T07:39:19.206Z,20.38
2019-04-27T07:41:48.810Z,20.51
2019-04-27T07:44:25.042Z,19.50
2019-04-27T07:47:11.386Z,20.18
2019-04-27T07:49:40.045Z,20.62
2019-04-27T07:52:08.811Z,20.92
2019-04-27T07:54:38.518Z,21.03
2019-04-27T07:57:09.726Z,20.01
2019-04-27T07:59:41.495Z,20.63
2019-04-27T08:02:10.957Z,20.67
2019-04-27T08:04:40.038Z,20.75
2019-04-27T08:07:09.214Z,20.93
2019-04-27T08:09:39.614Z,20.19
2019-04-27T08:12:08.529Z,20.66
2019-04-27T08:14:38.459Z,20.69
2019-04-27T08:17:07.220Z,21.26
2019-04-27T08:19:35.958Z,20.92
2019-04-27T08:22:04.587Z,21.04
2019-04-27T08:24:33.275Z,21.77
2019-04-27T08:27:19.619Z,21.94
2019-04-27T08:29:49.885Z,21.63
2019-04-27T08:32:20.149Z,21.78
2019-04-27T08:34:49.615Z,21.95
2019-04-27T08:37:18.825Z,21.56
2019-04-27T08:39:49.578Z,21.52
2019-04-27T08:42:19.438Z,21.66
2019-04-27T08:44:49.682Z,21.59
2019-04-27T08:47:19.463Z,21.68
2019-04-27T08:49:49.152Z,21.87
2019-04-27T08:52:19.378Z,21.74
2019-04-27T08:54:49.355Z,21.55
2019-04-27T08:57:18.940Z,21.25
2019-04-27T08:59:48.959Z,21.34
2019-04-27T09:02:19.626Z,21.57
2019-04-27T09:04:49.553Z,21.86
2019-04-27T09:07:32.175Z,22.37
2019-04-27T09:10:08.687Z,22.69
2019-04-27T09:12:53.961Z,22.13
2019-04-27T09:15:24.228Z,22.23
2019-04-27T09:17:54.484Z,22.00
2019-04-27T09:20:24.746Z,22.07
2019-04-27T09:22:53.407Z,22.71
2019-04-27T09:25:22.127Z,22.96
2019-04-27T09:27:50.814Z,23.15
2019-04-27T09:30:19.545Z,22.72
2019-04-27T09:32:48.260Z,23.01
2019-04-27T09:35:16.930Z,22.22
2019-04-27T09:37:45.936Z,22.49
2019-04-27T09:40:14.856Z,22.95
2019-04-27T09:42:43.558Z,23.39
2019-04-27T09:45:12.482Z,23.37
2019-04-27T09:47:41.116Z,23.52
2019-04-27T09:50:10.315Z,22.97
2019-04-27T09:52:39.043Z,23.23
2019-04-27T09:55:08.935Z,23.12
2019-04-27T09:57:37.575Z,23.23
2019-04-27T10:00:12.029Z,23.56
2019-04-27T10:02:40.718Z,23.92
2019-04-27T10:05:09.607Z,23.30
2019-04-27T10:07:38.343Z,23.51
2019-04-27T10:10:07.728Z,23.76
2019-04-27T10:12:36.985Z,23.80
2019-04-27T10:15:06.660Z,23.80
2019-04-27T10:17:35.346Z,23.74
2019-04-27T10:20:05.967Z,23.80
2019-04-27T10:22:41.305Z,23.94
2019-04-27T10:25:08.046Z,23.75
2019-04-27T10:27:36.673Z,23.99
2019-04-27T10:30:08.932Z,23.94
2019-04-27T10:32:37.632Z,24.44
2019-04-27T10:35:07.852Z,24.25
2019-04-27T10:37:36.604Z,24.45
2019-04-27T10:40:06.303Z,24.28
2019-04-27T10:42:35.813Z,24.53
2019-04-27T10:45:08.095Z,23.67
2019-04-27T10:47:36.718Z,23.69
2019-04-27T10:50:06.919Z,24.10
2019-04-27T10:52:35.660Z,24.09
2019-04-27T10:55:05.953Z,24.24
2019-04-27T10:57:34.836Z,24.03
2019-04-27T11:00:06.587Z,24.23
2019-04-27T11:02:35.446Z,24.30
2019-04-27T11:05:10.197Z,24.67
2019-04-27T11:07:39.884Z,24.60
2019-04-27T11:10:08.686Z,24.84
2019-04-27T11:12:37.437Z,24.53
2019-04-27T11:15:08.626Z,23.67
2019-04-27T11:17:37.333Z,24.09
2019-04-27T11:20:08.127Z,24.23
2019-04-27T11:22:36.835Z,24.50
2019-04-27T11:25:07.933Z,24.71
2019-04-27T11:27:36.655Z,25.08
2019-04-27T11:30:08.253Z,25.28
2019-04-27T11:32:37.075Z,25.33
2019-04-27T11:35:20.524Z,25.38
2019-04-27T11:37:50.882Z,25.58
2019-04-27T11:40:21.786Z,25.01
2019-04-27T11:42:50.628Z,25.18
2019-04-27T11:45:19.437Z,24.43
2019-04-27T11:47:48.130Z,23.02
2019-04-27T11:50:18.661Z,23.52
2019-04-27T11:52:47.551Z,23.11
2019-04-27T11:55:16.858Z,23.01
2019-04-27T11:57:47.043Z,22.26
2019-04-27T12:00:19.258Z,22.29
2019-04-27T12:02:47.951Z,22.01
2019-04-27T12:05:16.878Z,21.69
2019-04-27T12:07:47.473Z,21.27
2019-04-27T12:10:16.277Z,21.09
2019-04-27T12:12:46.366Z,21.16
2019-04-27T12:15:16.370Z,20.79
2019-04-27T12:17:46.115Z,20.58
2019-04-27T12:20:15.923Z,20.40
2019-04-27T12:22:45.523Z,20.30
2019-04-27T12:25:15.723Z,19.70
2019-04-27T12:28:02.233Z,19.67
2019-04-27T12:30:32.489Z,19.46
2019-04-27T12:33:01.183Z,18.99
2019-04-27T12:35:29.911Z,18.27
2019-04-27T12:37:58.609Z,18.73
2019-04-27T12:40:27.304Z,18.17
2019-04-27T12:42:56.046Z,19.34
2019-04-27T12:45:26.557Z,19.64
2019-04-27T12:47:56.612Z,19.92
2019-04-27T12:50:26.082Z,19.22
2019-04-27T12:52:59.439Z,19.30
2019-04-27T12:55:38.884Z,19.45
2019-04-27T12:58:09.145Z,19.84
2019-04-27T13:00:39.488Z,19.80
2019-04-27T13:03:08.215Z,19.75
2019-04-27T13:05:36.907Z,20.02
2019-04-27T13:08:05.604Z,20.31
2019-04-27T13:10:34.335Z,20.13
2019-04-27T13:13:03.023Z,19.65
2019-04-27T13:15:31.716Z,19.60
2019-04-27T13:18:00.378Z,19.90
2019-04-27T13:20:29.086Z,20.41
2019-04-27T13:22:57.776Z,20.73
2019-04-27T13:25:26.519Z,20.54
2019-04-27T13:27:56.712Z,20.60
2019-04-27T13:30:25.882Z,20.47
2019-04-27T13:32:56.223Z,20.75
2019-04-27T13:35:25.854Z,20.95
2019-04-27T13:37:55.943Z,20.24
2019-04-27T13:40:25.888Z,20.62
2019-04-27T13:43:11.095Z,20.99
2019-04-27T13:45:44.126Z,20.33
2019-04-27T13:48:32.265Z,20.51
2019-04-27T13:51:17.478Z,20.64
2019-04-27T13:53:46.184Z,20.88
2019-04-27T13:56:14.826Z,21.32
2019-04-27T13:58:44.253Z,20.51
2019-04-27T14:01:12.951Z,20.56
2019-04-27T14:03:41.679Z,20.77
2019-04-27T14:06:10.411Z,19.32
2019-04-27T14:08:39.120Z,19.22
2019-04-27T14:11:09.563Z,19.82
2019-04-27T14:13:39.115Z,20.46
2019-04-27T14:16:08.753Z,20.92
2019-04-27T14:18:38.484Z,20.10
2019-04-27T14:21:09.292Z,18.79
2019-04-27T14:23:38.551Z,18.63
2019-04-27T14:26:08.791Z,18.92
2019-04-27T14:28:37.657Z,19.01
2019-04-27T14:31:06.355Z,19.45
2019-04-27T14:33:35.051Z,19.29
2019-04-27T14:36:03.845Z,18.92
2019-04-27T14:38:32.536Z,19.43
2019-04-27T14:41:01.233Z,18.90
2019-04-27T14:43:29.957Z,18.15
2019-04-27T14:45:58.675Z,17.39
2019-04-27T14:48:29.303Z,16.50
2019-04-27T14:50:59.056Z,14.80
2019-04-27T14:53:28.295Z,13.99
2019-04-27T14:55:58.479Z,14.95
2019-04-27T14:58:28.296Z,15.54
2019-04-27T15:00:58.557Z,14.95
2019-04-27T15:03:27.290Z,16.11
2019-04-27T15:05:56.213Z,15.92
2019-04-27T15:08:25.572Z,15.51
2019-04-27T15:10:54.499Z,15.79
2019-04-27T15:13:23.213Z,15.54
2019-04-27T15:15:51.973Z,14.91
2019-04-27T15:18:20.681Z,15.70
2019-04-27T15:20:49.415Z,15.14
2019-04-27T15:23:20.018Z,14.99
2019-04-27T15:25:50.003Z,14.74
2019-04-27T15:28:23.143Z,14.94
2019-04-27T15:30:53.403Z,15.36
2019-04-27T15:33:39.940Z,15.14
2019-04-27T15:36:10.415Z,14.94
2019-04-27T15:38:47.720Z,15.12
2019-04-27T15:41:31.619Z,15.20
2019-04-27T15:44:05.703Z,15.35
2019-04-27T15:46:33.818Z,15.68
2019-04-27T15:49:07.016Z,15.83
2019-04-27T15:51:33.243Z,15.57
2019-04-27T15:54:02.128Z,15.73
2019-04-27T15:56:35.158Z,15.48
2019-04-27T15:59:01.262Z,15.23
2019-04-27T16:01:35.766Z,15.21
2019-04-27T16:04:02.444Z,15.33
2019-04-27T16:06:30.944Z,15.15
2019-04-27T16:08:59.656Z,15.47
2019-04-27T16:11:28.381Z,15.40
2019-04-27T16:13:58.650Z,15.31
2019-04-27T16:16:29.129Z,15.65
2019-04-27T16:18:59.429Z,15.62
2019-04-27T16:21:31.387Z,15.92
2019-04-27T16:23:58.699Z,15.97
2019-04-27T16:26:28.554Z,16.49
2019-04-27T16:28:58.111Z,15.48
2019-04-27T16:31:31.479Z,14.84
2019-04-27T16:33:59.101Z,14.77
2019-04-27T16:36:28.852Z,15.60
2019-04-27T16:38:59.130Z,15.70
2019-04-27T16:41:28.192Z,15.85
2019-04-27T16:43:58.186Z,16.02
2019-04-27T16:46:28.495Z,16.13
2019-04-27T16:48:59.290Z,16.38
2019-04-27T16:51:29.690Z,16.38
2019-04-27T16:53:58.425Z,16.29
2019-04-27T16:56:28.656Z,15.96
2019-04-27T16:59:11.503Z,16.44
2019-04-27T17:01:30.395Z,16.28
2019-04-27T17:03:59.554Z,16.18
2019-04-27T17:06:29.654Z,16.28
2019-04-27T17:09:05.623Z,15.94
2019-04-27T17:11:29.790Z,16.41
2019-04-27T17:14:00.221Z,16.50
2019-04-27T17:16:34.082Z,15.87
2019-04-27T17:19:19.226Z,14.79
2019-04-27T17:21:48.529Z,15.22
2019-04-27T17:24:21.098Z,15.09
2019-04-27T17:26:49.817Z,15.31
2019-04-27T17:29:20.449Z,15.51
2019-04-27T17:31:55.206Z,15.57
2019-04-27T17:34:25.203Z,15.33
2019-04-27T17:36:54.627Z,15.28
2019-04-27T17:39:23.511Z,15.86
2019-04-27T17:41:52.959Z,16.03
2019-04-27T17:44:23.110Z,16.71
2019-04-27T17:46:52.062Z,16.75
2019-04-27T17:49:20.783Z,16.67
2019-04-27T17:51:49.474Z,16.82
2019-04-27T17:54:18.296Z,16.47
2019-04-27T17:56:49.577Z,16.87
2019-04-27T17:59:20.685Z,17.03
2019-04-27T18:01:49.542Z,17.15
2019-04-27T18:04:18.611Z,17.36
2019-04-27T18:06:48.384Z,17.45
2019-04-27T18:09:18.776Z,17.08
2019-04-27T18:11:48.564Z,15.77
2019-04-27T18:14:19.294Z,15.72
2019-04-27T18:16:48.255Z,16.02
2019-04-27T18:19:21.439Z,16.47
2019-04-27T18:22:01.079Z,16.79
2019-04-27T18:24:31.413Z,16.43
2019-04-27T18:27:04.330Z,16.65
2019-04-27T18:29:32.103Z,17.11
2019-04-27T18:32:00.834Z,17.38
2019-04-27T18:34:29.526Z,17.46
2019-04-27T18:36:58.208Z,16.96
2019-04-27T18:39:26.943Z,16.57
2019-04-27T18:41:55.641Z,16.75
2019-04-27T18:44:29.288Z,17.16
2019-04-27T18:46:58.833Z,17.28
2019-04-27T18:49:30.114Z,17.13
2019-04-27T18:52:15.455Z,17.27
2019-04-27T18:54:44.144Z,17.11
2019-04-27T18:57:15.153Z,17.12
2019-04-27T18:59:43.218Z,17.36
2019-04-27T19:02:11.914Z,17.21
2019-04-27T19:04:40.523Z,17.15
2019-04-27T19:07:09.269Z,16.75
2019-04-27T19:09:37.975Z,16.64
2019-04-27T19:12:06.674Z,17.04
2019-04-27T19:14:35.394Z,16.80
2019-04-27T19:17:04.408Z,17.01
2019-04-27T19:19:33.109Z,17.10
2019-04-27T19:22:01.764Z,17.03
2019-04-27T19:24:30.455Z,17.05
2019-04-27T19:27:00.714Z,17.06
2019-04-27T19:29:31.012Z,16.83
2019-04-27T19:32:01.277Z,17.15
2019-04-27T19:34:29.981Z,16.39
2019-04-27T19:36:59.312Z,16.71
2019-04-27T19:39:28.570Z,16.15
2019-04-27T19:42:01.383Z,16.26
2019-04-27T19:44:29.245Z,16.72
2019-04-27T19:46:59.950Z,16.96
2019-04-27T19:49:29.379Z,16.79
2019-04-27T19:51:58.981Z,16.04
2019-04-27T19:54:29.945Z,16.74
2019-04-27T19:56:59.557Z,16.33
2019-04-27T19:59:32.962Z,16.08
2019-04-27T20:02:03.226Z,16.04
2019-04-27T20:04:36.449Z,16.11
2019-04-27T20:07:05.390Z,16.12
2019-04-27T20:09:50.542Z,16.15
2019-04-27T20:12:21.116Z,16.11
2019-04-27T20:14:55.632Z,16.34
2019-04-27T20:17:26.717Z,16.15
2019-04-27T20:19:56.218Z,16.05
2019-04-27T20:22:25.009Z,16.24
2019-04-27T20:24:53.777Z,16.50
2019-04-27T20:27:22.456Z,16.15
2019-04-27T20:29:51.356Z,15.89
2019-04-27T20:32:21.535Z,15.15
2019-04-27T20:34:51.299Z,14.92
2019-04-27T20:37:21.000Z,15.63
2019-04-27T20:39:51.437Z,16.02
2019-04-27T20:42:21.177Z,16.08
2019-04-27T20:44:51.661Z,16.00
2019-04-27T20:47:20.585Z,16.05
2019-04-27T20:49:49.269Z,15.37
2019-04-27T20:52:25.661Z,15.53
2019-04-27T20:54:54.285Z,14.81
2019-04-27T20:57:22.978Z,14.78
2019-04-27T20:59:52.344Z,14.81
2019-04-27T21:02:34.605Z,15.24
2019-04-27T21:05:21.184Z,15.29
2019-04-27T21:08:01.448Z,15.67
2019-04-27T21:10:30.773Z,15.91
2019-04-27T21:13:01.022Z,15.21
2019-04-27T21:15:31.419Z,14.31
2019-04-27T21:18:01.269Z,14.10
2019-04-27T21:20:30.956Z,14.69
2019-04-27T21:23:01.795Z,14.75
2019-04-27T21:25:31.506Z,13.93
2019-04-27T21:28:14.975Z,14.80
2019-04-27T21:30:31.394Z,14.95
2019-04-27T21:33:01.083Z,15.30
2019-04-27T21:35:29.941Z,15.29
2019-04-27T21:37:58.625Z,15.29
2019-04-27T21:40:27.355Z,15.92
2019-04-27T21:42:56.059Z,15.67
2019-04-27T21:45:24.681Z,15.62
2019-04-27T21:47:53.403Z,15.30
2019-04-27T21:50:23.184Z,15.01
2019-04-27T21:53:11.039Z,15.22
2019-04-27T21:55:39.877Z,15.15
2019-04-27T21:58:08.572Z,15.19
2019-04-27T22:00:43.120Z,14.43
2019-04-27T22:03:13.661Z,15.02
2019-04-27T22:05:42.371Z,14.35
2019-04-27T22:08:11.775Z,14.25
2019-04-27T22:10:40.515Z,13.97
2019-04-27T22:13:09.203Z,14.45
2019-04-27T22:15:37.940Z,14.07
2019-04-27T22:18:06.617Z,13.76
2019-04-27T22:20:35.913Z,13.51
2019-04-27T22:23:08.935Z,13.67
2019-04-27T22:25:38.819Z,14.01
2019-04-27T22:28:07.441Z,13.96
2019-04-27T22:30:36.376Z,13.88
2019-04-27T22:33:05.058Z,13.66
2019-04-27T22:35:33.756Z,13.56
2019-04-27T22:38:02.421Z,14.01
2019-04-27T22:40:41.974Z,13.24
2019-04-27T22:43:27.261Z,13.41
2019-04-27T22:45:56.549Z,14.30
2019-04-27T22:48:25.256Z,14.52
2019-04-27T22:50:53.982Z,15.05
2019-04-27T22:53:22.667Z,15.30
2019-04-27T22:56:08.929Z,15.47
2019-04-27T22:58:40.656Z,15.42
2019-04-27T23:01:27.006Z,14.57
2019-04-27T23:03:57.253Z,14.50
2019-04-27T23:06:25.873Z,13.89
2019-04-27T23:08:54.530Z,13.52
2019-04-27T23:11:23.218Z,13.54
2019-04-27T23:13:52.530Z,14.14
2019-04-27T23:16:22.802Z,14.48
2019-04-27T23:18:51.618Z,14.31
2019-04-27T23:21:20.871Z,13.42
2019-04-27T23:23:51.588Z,12.64
2019-04-27T23:26:21.143Z,13.60
2019-04-27T23:28:51.395Z,13.30
2019-04-27T23:31:27.823Z,13.94
2019-04-27T23:33:56.513Z,13.46
2019-04-27T23:36:25.210Z,13.83
2019-04-27T23:38:53.949Z,14.08
2019-04-27T23:41:22.564Z,14.72
2019-04-27T23:43:51.251Z,14.53
2019-04-27T23:46:21.477Z,13.09
2019-04-27T23:48:52.064Z,12.91
2019-04-27T23:51:31.233Z,13.57
2019-04-27T23:54:01.589Z,13.89
2019-04-27T23:56:31.803Z,13.83
2019-04-27T23:59:00.631Z,14.37
